createdAt,value
2018-12-06T00:00:44.192Z,36.60
2018-12-06T00:01:44.277Z,34.80
2018-12-06T00:02:44.086Z,37.20
2018-12-06T00:03:44.031Z,36.70
2018-12-06T00:04:44.189Z,37.00
2018-12-06T00:05:43.931Z,38.20
2018-12-06T00:06:43.875Z,35.90
2018-12-06T00:07:43.983Z,35.30
2018-12-06T00:08:43.774Z,35.50
2018-12-06T00:09:43.721Z,34.00
2018-12-06T00:10:43.685Z,36.10
2018-12-06T00:11:43.621Z,34.90
2018-12-06T00:12:43.582Z,34.30
2018-12-06T00:13:43.516Z,37.00
2018-12-06T00:14:43.687Z,34.10
2018-12-06T00:15:43.406Z,33.30
2018-12-06T00:16:43.363Z,34.80
2018-12-06T00:17:43.319Z,34.30
2018-12-06T00:18:43.314Z,35.30
2018-12-06T00:19:43.390Z,37.20
2018-12-06T00:20:43.153Z,36.50
2018-12-06T00:21:43.097Z,34.80
2018-12-06T00:22:43.193Z,35.20
2018-12-06T00:23:42.993Z,33.60
2018-12-06T00:24:42.945Z,33.00
2018-12-06T00:25:43.106Z,32.80
2018-12-06T00:26:42.839Z,33.80
2018-12-06T00:27:42.785Z,33.20
2018-12-06T00:28:43.005Z,33.80
2018-12-06T00:29:42.690Z,34.70
2018-12-06T00:30:42.638Z,33.30
2018-12-06T00:31:42.799Z,33.30
2018-12-06T00:32:42.526Z,35.90
2018-12-06T00:33:42.476Z,35.50
2018-12-06T00:34:42.605Z,35.50
2018-12-06T00:35:42.375Z,35.60
2018-12-06T00:36:42.320Z,37.10
2018-12-06T00:37:42.505Z,36.40
2018-12-06T00:38:42.220Z,36.70
2018-12-06T00:39:42.165Z,37.30
2018-12-06T00:40:42.307Z,39.10
2018-12-06T00:41:42.060Z,42.30
2018-12-06T00:42:42.012Z,39.80
2018-12-06T00:43:42.102Z,38.30
2018-12-06T00:44:41.910Z,37.10
2018-12-06T00:45:41.852Z,36.00
2018-12-06T00:46:42.005Z,36.10
2018-12-06T00:47:41.750Z,36.30
2018-12-06T00:48:41.702Z,36.70
2018-12-06T00:49:41.801Z,35.40
2018-12-06T00:50:41.593Z,33.90
2018-12-06T00:51:41.541Z,35.40
2018-12-06T00:52:41.700Z,35.20
2018-12-06T00:53:41.441Z,34.40
2018-12-06T00:54:41.385Z,36.50
2018-12-06T00:55:41.398Z,35.10
2018-12-06T00:56:41.281Z,35.80
2018-12-06T00:57:41.230Z,36.40
2018-12-06T00:58:41.405Z,36.70
2018-12-06T00:59:41.124Z,35.50
2018-12-06T01:00:41.077Z,35.90
2018-12-06T01:01:41.223Z,36.50
2018-12-06T01:02:40.968Z,36.00
2018-12-06T01:03:40.918Z,34.50
2018-12-06T01:04:41.010Z,36.10
2018-12-06T01:05:40.816Z,36.50
2018-12-06T01:06:40.765Z,34.20
2018-12-06T01:07:40.912Z,34.60
2018-12-06T01:08:40.662Z,33.60
2018-12-06T01:09:40.608Z,34.40
2018-12-06T01:10:40.721Z,33.70
2018-12-06T01:11:40.506Z,33.20
2018-12-06T01:12:40.451Z,34.30
2018-12-06T01:13:40.609Z,34.60
2018-12-06T01:14:40.349Z,34.70
2018-12-06T01:15:40.298Z,34.10
2018-12-06T01:16:40.421Z,34.30
2018-12-06T01:17:40.193Z,33.30
2018-12-06T01:18:40.141Z,33.30
2018-12-06T01:19:40.326Z,33.80
2018-12-06T01:20:40.038Z,33.60
2018-12-06T01:21:39.996Z,33.90
2018-12-06T01:22:40.129Z,34.50
2018-12-06T01:23:39.882Z,32.60
2018-12-06T01:24:39.828Z,32.70
2018-12-06T01:25:39.912Z,33.40
2018-12-06T01:26:39.730Z,33.10
2018-12-06T01:27:39.676Z,34.90
2018-12-06T01:28:39.825Z,32.80
2018-12-06T01:29:39.571Z,33.40
2018-12-06T01:30:39.519Z,33.80
2018-12-06T01:31:39.627Z,33.60
2018-12-06T01:32:39.413Z,33.20
2018-12-06T01:33:39.369Z,34.10
2018-12-06T01:34:39.522Z,33.20
2018-12-06T01:35:39.261Z,33.00
2018-12-06T01:36:39.207Z,34.40
2018-12-06T01:37:39.321Z,33.70
2018-12-06T01:38:39.105Z,34.00
2018-12-06T01:39:39.056Z,32.50
2018-12-06T01:40:39.227Z,32.80
2018-12-06T01:41:38.954Z,33.40
2018-12-06T01:42:38.899Z,33.50
2018-12-06T01:43:39.024Z,33.60
2018-12-06T01:44:38.796Z,32.90
2018-12-06T01:45:38.757Z,31.00
2018-12-06T01:46:38.936Z,31.00
2018-12-06T01:47:38.640Z,31.80
2018-12-06T01:48:38.589Z,33.30
2018-12-06T01:49:38.730Z,32.70
2018-12-06T01:50:38.486Z,32.00
2018-12-06T01:51:38.443Z,32.10
2018-12-06T01:52:38.525Z,31.90
2018-12-06T01:53:38.336Z,32.90
2018-12-06T01:54:38.277Z,32.80
2018-12-06T01:55:38.246Z,33.70
2018-12-06T01:56:38.178Z,33.40
2018-12-06T01:57:38.141Z,32.70
2018-12-06T01:58:38.072Z,33.40
2018-12-06T01:59:38.020Z,33.60
2018-12-06T02:00:37.985Z,33.40
2018-12-06T02:01:37.921Z,34.70
2018-12-06T02:02:38.034Z,35.70
2018-12-06T02:03:37.817Z,35.90
2018-12-06T02:04:37.763Z,35.70
2018-12-06T02:05:37.721Z,35.20
2018-12-06T02:06:37.660Z,36.50
2018-12-06T02:07:37.845Z,36.30
2018-12-06T02:08:37.555Z,36.10
2018-12-06T02:09:37.507Z,34.60
2018-12-06T02:10:37.455Z,36.10
2018-12-06T02:11:37.406Z,35.40
2018-12-06T02:12:37.366Z,36.40
2018-12-06T02:13:37.302Z,35.40
2018-12-06T02:14:37.439Z,37.40
2018-12-06T02:15:37.197Z,36.40
2018-12-06T02:16:37.144Z,38.50
2018-12-06T02:17:37.110Z,37.10
2018-12-06T02:18:37.044Z,37.10
2018-12-06T02:19:37.142Z,37.90
2018-12-06T02:20:36.938Z,36.20
2018-12-06T02:21:36.889Z,37.30
2018-12-06T02:22:36.849Z,38.00
2018-12-06T02:23:36.784Z,38.40
2018-12-06T02:24:36.944Z,35.60
2018-12-06T02:25:36.677Z,37.80
2018-12-06T02:26:36.627Z,36.60
2018-12-06T02:27:36.574Z,36.80
2018-12-06T02:28:36.521Z,36.70
2018-12-06T02:29:36.638Z,34.90
2018-12-06T02:30:36.419Z,35.40
2018-12-06T02:31:36.367Z,35.70
2018-12-06T02:32:36.333Z,35.60
2018-12-06T02:33:36.274Z,36.40
2018-12-06T02:34:36.459Z,36.60
2018-12-06T02:35:36.160Z,36.50
2018-12-06T02:36:36.103Z,36.90
2018-12-06T02:37:36.050Z,36.60
2018-12-06T02:38:36.009Z,36.70
2018-12-06T02:39:36.153Z,37.80
2018-12-06T02:40:35.902Z,38.10
2018-12-06T02:41:35.846Z,38.40
2018-12-06T02:42:35.817Z,39.10
2018-12-06T02:43:35.745Z,38.60
2018-12-06T02:44:35.850Z,38.10
2018-12-06T02:45:35.641Z,36.90
2018-12-06T02:46:35.600Z,39.00
2018-12-06T02:47:35.560Z,38.40
2018-12-06T02:48:35.498Z,39.80
2018-12-06T02:49:35.573Z,38.70
2018-12-06T02:50:35.374Z,40.50
2018-12-06T02:51:35.336Z,39.60
2018-12-06T02:52:35.285Z,38.90
2018-12-06T02:53:35.216Z,40.70
2018-12-06T02:54:35.375Z,41.70
2018-12-06T02:55:35.122Z,39.40
2018-12-06T02:56:35.072Z,39.90
2018-12-06T02:57:35.017Z,40.20
2018-12-06T02:58:34.966Z,38.90
2018-12-06T02:59:35.057Z,40.80
2018-12-06T03:00:34.859Z,40.10
2018-12-06T03:01:34.808Z,39.40
2018-12-06T03:02:34.773Z,39.60
2018-12-06T03:03:34.704Z,40.50
2018-12-06T03:04:34.874Z,38.60
2018-12-06T03:05:34.598Z,37.40
2018-12-06T03:06:34.547Z,37.40
2018-12-06T03:07:34.516Z,38.10
2018-12-06T03:08:34.441Z,36.90
2018-12-06T03:09:34.575Z,37.00
2018-12-06T03:10:34.344Z,37.50
2018-12-06T03:11:34.283Z,38.90
2018-12-06T03:12:34.254Z,39.20
2018-12-06T03:13:34.181Z,38.40
2018-12-06T03:14:34.374Z,38.00
2018-12-06T03:15:34.096Z,37.40
2018-12-06T03:16:34.039Z,37.40
2018-12-06T03:17:33.984Z,36.70
2018-12-06T03:18:33.931Z,36.00
2018-12-06T03:19:34.155Z,37.50
2018-12-06T03:20:33.823Z,36.10
2018-12-06T03:21:33.769Z,37.60
2018-12-06T03:22:33.738Z,36.50
2018-12-06T03:23:33.671Z,36.30
2018-12-06T03:24:33.783Z,36.60
2018-12-06T03:25:33.553Z,34.80
2018-12-06T03:26:33.506Z,35.80
2018-12-06T03:27:33.456Z,34.90
2018-12-06T03:28:33.406Z,33.80
2018-12-06T03:29:33.368Z,35.20
2018-12-06T03:30:33.301Z,34.40
2018-12-06T03:31:33.479Z,34.90
2018-12-06T03:32:33.203Z,32.70
2018-12-06T03:33:33.147Z,32.10
2018-12-06T03:34:33.093Z,33.30
2018-12-06T03:35:33.041Z,33.70
2018-12-06T03:36:32.999Z,33.40
2018-12-06T03:37:32.934Z,33.90
2018-12-06T03:38:33.092Z,33.90
2018-12-06T03:39:32.838Z,33.20
2018-12-06T03:40:32.786Z,34.20
2018-12-06T03:41:32.729Z,33.20
2018-12-06T03:42:32.678Z,33.10
2018-12-06T03:43:32.783Z,33.40
2018-12-06T03:44:32.579Z,32.70
2018-12-06T03:45:32.555Z,32.60
2018-12-06T03:46:32.474Z,32.60
2018-12-06T03:47:32.432Z,34.00
2018-12-06T03:48:32.372Z,31.40
2018-12-06T03:49:32.320Z,31.60
2018-12-06T03:50:32.486Z,29.90
2018-12-06T03:51:32.224Z,30.20
2018-12-06T03:52:32.165Z,28.80
2018-12-06T03:53:32.114Z,29.30
2018-12-06T03:54:32.065Z,29.60
2018-12-06T03:55:32.198Z,27.90
2018-12-06T03:56:31.957Z,28.20
2018-12-06T03:57:31.906Z,28.10
2018-12-06T03:58:31.867Z,27.00
2018-12-06T03:59:31.799Z,27.70
2018-12-06T04:00:31.999Z,27.10
2018-12-06T04:01:31.705Z,27.30
2018-12-06T04:02:31.648Z,25.40
2018-12-06T04:03:31.615Z,25.90
2018-12-06T04:04:31.547Z,24.10
2018-12-06T04:05:31.687Z,24.50
2018-12-06T04:06:31.441Z,24.20
2018-12-06T04:07:31.387Z,25.50
2018-12-06T04:08:31.363Z,24.40
2018-12-06T04:09:31.286Z,26.00
2018-12-06T04:10:31.325Z,25.30
2018-12-06T04:11:31.179Z,23.90
2018-12-06T04:12:31.124Z,23.80
2018-12-06T04:13:31.119Z,24.70
2018-12-06T04:14:31.030Z,23.30
2018-12-06T04:15:31.193Z,24.10
2018-12-06T04:16:30.925Z,24.50
2018-12-06T04:17:30.873Z,25.30
2018-12-06T04:18:30.842Z,26.70
2018-12-06T04:19:30.774Z,26.50
2018-12-06T04:20:30.897Z,25.90
2018-12-06T04:21:30.668Z,27.10
2018-12-06T04:22:30.622Z,26.80
2018-12-06T04:23:30.579Z,26.60
2018-12-06T04:24:30.513Z,27.00
2018-12-06T04:25:30.603Z,26.70
2018-12-06T04:26:30.411Z,27.80
2018-12-06T04:27:30.359Z,28.70
2018-12-06T04:28:30.329Z,28.50
2018-12-06T04:29:30.256Z,28.50
2018-12-06T04:30:30.401Z,28.40
2018-12-06T04:31:30.151Z,27.70
2018-12-06T04:32:30.102Z,27.50
2018-12-06T04:33:30.063Z,27.60
2018-12-06T04:34:30.004Z,27.90
2018-12-06T04:35:30.115Z,27.80
2018-12-06T04:36:29.897Z,26.80
2018-12-06T04:37:29.845Z,26.50
2018-12-06T04:38:29.809Z,27.20
2018-12-06T04:39:29.739Z,27.90
2018-12-06T04:40:29.924Z,27.10
2018-12-06T04:41:29.629Z,26.30
2018-12-06T04:42:29.590Z,27.30
2018-12-06T04:43:29.553Z,26.60
2018-12-06T04:44:29.486Z,27.60
2018-12-06T04:45:29.604Z,28.20
2018-12-06T04:46:29.454Z,30.90
2018-12-06T04:47:29.330Z,33.40
2018-12-06T04:48:29.293Z,31.50
2018-12-06T04:49:29.223Z,29.70
2018-12-06T04:50:29.415Z,26.00
2018-12-06T04:51:29.125Z,25.80
2018-12-06T04:52:29.082Z,25.40
2018-12-06T04:53:29.042Z,26.90
2018-12-06T04:54:28.981Z,26.90
2018-12-06T04:55:29.118Z,26.50
2018-12-06T04:56:28.860Z,26.70
2018-12-06T04:57:28.817Z,26.50
2018-12-06T04:58:28.782Z,27.00
2018-12-06T04:59:28.713Z,27.00
2018-12-06T05:00:28.825Z,26.70
2018-12-06T05:01:28.611Z,27.30
2018-12-06T05:02:28.563Z,26.80
2018-12-06T05:03:28.524Z,26.40
2018-12-06T05:04:28.459Z,26.60
2018-12-06T05:05:28.617Z,26.20
2018-12-06T05:06:28.364Z,26.00
2018-12-06T05:07:28.304Z,26.50
2018-12-06T05:08:28.269Z,26.40
2018-12-06T05:09:28.200Z,26.30
2018-12-06T05:10:28.149Z,25.50
2018-12-06T05:11:28.098Z,26.30
2018-12-06T05:12:28.116Z,26.10
2018-12-06T05:13:28.001Z,26.50
2018-12-06T05:14:27.951Z,26.00
2018-12-06T05:15:27.904Z,26.20
2018-12-06T05:16:27.844Z,27.10
2018-12-06T05:17:27.928Z,26.40
2018-12-06T05:18:27.741Z,27.80
2018-12-06T05:19:27.690Z,26.30
2018-12-06T05:20:27.658Z,26.00
2018-12-06T05:21:27.588Z,25.70
2018-12-06T05:22:27.725Z,25.30
2018-12-06T05:23:27.485Z,27.20
2018-12-06T05:24:27.437Z,27.20
2018-12-06T05:25:27.389Z,27.40
2018-12-06T05:26:27.337Z,28.20
2018-12-06T05:27:27.286Z,27.60
2018-12-06T05:28:27.228Z,29.40
2018-12-06T05:29:27.344Z,28.90
2018-12-06T05:30:27.119Z,27.70
2018-12-06T05:31:27.092Z,26.40
2018-12-06T05:32:27.051Z,26.40
2018-12-06T05:33:26.969Z,28.00
2018-12-06T05:34:27.130Z,27.60
2018-12-06T05:35:26.873Z,26.60
2018-12-06T05:36:26.815Z,27.10
2018-12-06T05:37:26.787Z,28.40
2018-12-06T05:38:26.717Z,26.70
2018-12-06T05:39:26.847Z,27.10
2018-12-06T05:40:26.619Z,26.30
2018-12-06T05:41:26.560Z,26.30
2018-12-06T05:42:26.529Z,27.30
2018-12-06T05:43:26.459Z,27.40
2018-12-06T05:44:26.632Z,28.60
2018-12-06T05:45:26.353Z,28.70
2018-12-06T05:46:26.309Z,29.40
2018-12-06T05:47:26.275Z,30.30
2018-12-06T05:48:26.206Z,28.50
2018-12-06T05:49:26.352Z,29.30
2018-12-06T05:50:26.104Z,29.50
2018-12-06T05:51:26.055Z,29.10
2018-12-06T05:52:26.018Z,28.40
2018-12-06T05:53:25.947Z,28.70
2018-12-06T05:54:26.050Z,27.30
2018-12-06T05:55:25.849Z,26.20
2018-12-06T05:56:25.794Z,26.60
2018-12-06T05:57:25.743Z,26.80
2018-12-06T05:58:25.692Z,27.50
2018-12-06T05:59:25.947Z,27.90
2018-12-06T06:00:25.589Z,29.90
2018-12-06T06:01:25.535Z,31.40
2018-12-06T06:02:25.496Z,31.00
2018-12-06T06:03:25.469Z,31.20
2018-12-06T06:04:25.562Z,30.30
2018-12-06T06:05:25.327Z,29.30
2018-12-06T06:06:25.277Z,29.60
2018-12-06T06:07:25.240Z,29.30
2018-12-06T06:08:25.184Z,30.60
2018-12-06T06:09:25.695Z,30.10
2018-12-06T06:10:25.073Z,30.60
2018-12-06T06:11:25.024Z,30.00
2018-12-06T06:12:24.994Z,29.90
2018-12-06T06:13:24.921Z,30.00
2018-12-06T06:14:25.063Z,29.30
2018-12-06T06:15:24.824Z,29.50
2018-12-06T06:16:24.769Z,28.60
2018-12-06T06:17:24.719Z,29.30
2018-12-06T06:18:24.666Z,29.90
2018-12-06T06:19:24.612Z,30.50
2018-12-06T06:20:24.561Z,29.30
2018-12-06T06:21:24.506Z,30.00
2018-12-06T06:22:24.458Z,30.60
2018-12-06T06:23:24.403Z,31.20
2018-12-06T06:24:24.357Z,31.40
2018-12-06T06:25:24.318Z,31.80
2018-12-06T06:26:24.253Z,32.00
2018-12-06T06:27:24.202Z,33.90
2018-12-06T06:28:24.148Z,31.90
2018-12-06T06:29:24.103Z,33.70
2018-12-06T06:30:24.040Z,32.40
2018-12-06T06:31:23.991Z,33.30
2018-12-06T06:32:23.938Z,35.30
2018-12-06T06:33:23.919Z,34.60
2018-12-06T06:34:23.838Z,32.30
2018-12-06T06:35:23.969Z,33.80
2018-12-06T06:36:23.737Z,35.20
2018-12-06T06:37:23.684Z,33.90
2018-12-06T06:38:23.623Z,33.20
2018-12-06T06:39:23.587Z,31.40
2018-12-06T06:40:23.531Z,32.70
2018-12-06T06:41:23.483Z,32.60
2018-12-06T06:42:23.428Z,31.70
2018-12-06T06:43:23.371Z,30.80
2018-12-06T06:44:23.314Z,30.70
2018-12-06T06:45:23.270Z,31.90
2018-12-06T06:46:23.244Z,29.30
2018-12-06T06:47:23.174Z,30.30
2018-12-06T06:48:23.120Z,30.50
2018-12-06T06:49:23.103Z,29.90
2018-12-06T06:50:23.011Z,27.10
2018-12-06T06:51:22.961Z,29.70
2018-12-06T06:52:22.924Z,27.50
2018-12-06T06:53:22.867Z,26.90
2018-12-06T06:54:22.805Z,27.70
2018-12-06T06:55:22.755Z,26.50
2018-12-06T06:56:22.711Z,26.70
2018-12-06T06:57:22.653Z,27.30
2018-12-06T06:58:22.681Z,25.80
2018-12-06T06:59:26.140Z,25.30
2018-12-06T07:00:22.516Z,26.20
2018-12-06T07:01:22.446Z,25.90
2018-12-06T07:02:22.396Z,25.80
2018-12-06T07:03:22.340Z,25.30
2018-12-06T07:04:22.292Z,25.00
2018-12-06T07:05:22.238Z,25.70
2018-12-06T07:06:22.188Z,25.50
2018-12-06T07:07:22.137Z,24.90
2018-12-06T07:08:22.118Z,24.80
2018-12-06T07:09:22.034Z,24.40
2018-12-06T07:10:21.983Z,23.80
2018-12-06T07:11:21.933Z,24.10
2018-12-06T07:12:21.892Z,25.50
2018-12-06T07:13:22.973Z,24.50
2018-12-06T07:14:21.776Z,23.70
2018-12-06T07:15:21.725Z,23.30
2018-12-06T07:16:21.674Z,23.10
2018-12-06T07:17:21.622Z,22.40
2018-12-06T07:18:21.571Z,23.20
2018-12-06T07:19:21.519Z,23.30
2018-12-06T07:20:21.711Z,23.00
2018-12-06T07:21:21.538Z,22.80
2018-12-06T07:22:21.424Z,23.50
2018-12-06T07:23:21.388Z,23.90
2018-12-06T07:24:21.267Z,22.90
2018-12-06T07:25:21.211Z,21.50
2018-12-06T07:26:21.168Z,22.30
2018-12-06T07:27:21.113Z,23.00
2018-12-06T07:28:21.062Z,23.30
2018-12-06T07:29:21.032Z,23.40
2018-12-06T07:30:20.953Z,23.80
2018-12-06T07:31:20.904Z,22.10
2018-12-06T07:32:20.855Z,23.10
2018-12-06T07:33:20.800Z,23.20
2018-12-06T07:34:20.751Z,23.10
2018-12-06T07:35:20.699Z,24.30
2018-12-06T07:36:20.662Z,24.50
2018-12-06T07:37:20.591Z,23.00
2018-12-06T07:38:20.547Z,23.50
2018-12-06T07:39:20.496Z,23.70
2018-12-06T07:40:20.443Z,22.20
2018-12-06T07:41:20.432Z,23.00
2018-12-06T07:42:20.351Z,22.50
2018-12-06T07:43:20.332Z,22.50
2018-12-06T07:44:20.237Z,22.50
2018-12-06T07:45:20.187Z,22.60
2018-12-06T07:46:20.131Z,22.90
2018-12-06T07:47:20.106Z,22.10
2018-12-06T07:48:20.054Z,23.30
2018-12-06T07:49:20.070Z,22.10
2018-12-06T07:50:19.929Z,23.00
2018-12-06T07:51:19.881Z,23.90
2018-12-06T07:52:19.830Z,23.20
2018-12-06T07:53:19.777Z,23.20
2018-12-06T07:54:19.725Z,22.40
2018-12-06T07:55:19.673Z,22.70
2018-12-06T07:56:19.623Z,23.80
2018-12-06T07:57:19.571Z,22.90
2018-12-06T07:58:19.516Z,23.90
2018-12-06T07:59:19.472Z,23.20
2018-12-06T08:00:19.420Z,22.50
2018-12-06T08:01:19.369Z,22.30
2018-12-06T08:02:19.316Z,21.30
2018-12-06T08:03:19.270Z,20.30
2018-12-06T08:04:19.218Z,20.20
2018-12-06T08:05:19.165Z,20.50
2018-12-06T08:06:19.112Z,19.50
2018-12-06T08:07:19.064Z,19.40
2018-12-06T08:08:19.016Z,19.70
2018-12-06T08:09:18.961Z,19.80
2018-12-06T08:10:18.910Z,18.90
2018-12-06T08:11:18.858Z,18.30
2018-12-06T08:12:18.810Z,17.70
2018-12-06T08:13:18.775Z,17.10
2018-12-06T08:14:18.708Z,17.30
2018-12-06T08:15:18.659Z,16.80
2018-12-06T08:16:18.607Z,16.60
2018-12-06T08:17:18.572Z,17.00
2018-12-06T08:18:18.505Z,15.50
2018-12-06T08:19:18.490Z,16.80
2018-12-06T08:20:18.487Z,17.00
2018-12-06T08:21:18.354Z,18.50
2018-12-06T08:22:18.303Z,16.30
2018-12-06T08:23:18.252Z,18.30
2018-12-06T08:24:18.201Z,18.20
2018-12-06T08:25:18.150Z,20.20
2018-12-06T08:26:18.108Z,19.10
2018-12-06T08:27:18.043Z,18.20
2018-12-06T08:28:18.004Z,16.50
2018-12-06T08:29:17.949Z,16.30
2018-12-06T08:30:17.890Z,16.00
2018-12-06T08:31:17.851Z,16.00
2018-12-06T08:32:18.277Z,16.30
2018-12-06T08:33:17.743Z,16.70
2018-12-06T08:34:17.947Z,16.20
2018-12-06T08:35:17.644Z,15.50
2018-12-06T08:36:17.597Z,15.80
2018-12-06T08:37:17.544Z,15.80
2018-12-06T08:38:17.493Z,16.20
2018-12-06T08:39:17.444Z,15.60
2018-12-06T08:40:17.395Z,15.30
2018-12-06T08:41:17.344Z,15.80
2018-12-06T08:42:17.292Z,15.90
2018-12-06T08:43:17.240Z,16.60
2018-12-06T08:44:21.346Z,15.50
2018-12-06T08:45:17.140Z,15.80
2018-12-06T08:46:17.089Z,16.00
2018-12-06T08:47:17.048Z,16.50
2018-12-06T08:48:16.989Z,16.60
2018-12-06T08:49:16.940Z,15.40
2018-12-06T08:50:16.890Z,15.60
2018-12-06T08:51:16.838Z,15.60
2018-12-06T08:52:16.791Z,16.20
2018-12-06T08:53:16.736Z,16.00
2018-12-06T08:54:16.687Z,15.50
2018-12-06T08:55:16.636Z,16.10
2018-12-06T08:56:16.602Z,14.90
2018-12-06T08:57:16.537Z,15.70
2018-12-06T08:58:16.489Z,16.40
2018-12-06T08:59:16.440Z,16.70
2018-12-06T09:00:16.385Z,15.90
2018-12-06T09:01:16.332Z,16.40
2018-12-06T09:02:16.283Z,16.90
2018-12-06T09:03:16.238Z,16.20
2018-12-06T09:04:16.184Z,17.00
2018-12-06T09:05:16.131Z,16.50
2018-12-06T09:06:16.090Z,16.50
2018-12-06T09:07:16.031Z,16.60
2018-12-06T09:08:15.984Z,15.60
2018-12-06T09:09:15.932Z,16.00
2018-12-06T09:10:15.886Z,15.80
2018-12-06T09:11:15.921Z,16.60
2018-12-06T09:12:15.780Z,15.50
2018-12-06T09:13:16.213Z,15.10
2018-12-06T09:14:15.673Z,15.40
2018-12-06T09:15:15.632Z,15.60
2018-12-06T09:16:16.346Z,15.20
2018-12-06T09:17:15.531Z,14.70
2018-12-06T09:18:15.484Z,15.00
2018-12-06T09:19:15.448Z,14.90
2018-12-06T09:20:15.376Z,14.90
2018-12-06T09:21:15.325Z,14.70
2018-12-06T09:22:15.279Z,14.40
2018-12-06T09:23:15.227Z,14.90
2018-12-06T09:24:15.175Z,13.80
2018-12-06T09:25:21.018Z,14.10
2018-12-06T09:26:15.238Z,14.60
2018-12-06T09:27:15.023Z,14.30
2018-12-06T09:28:14.978Z,14.10
2018-12-06T09:29:14.927Z,14.40
2018-12-06T09:30:14.871Z,14.20
2018-12-06T09:31:14.839Z,14.30
2018-12-06T09:32:14.772Z,14.30
2018-12-06T09:33:14.721Z,15.40
2018-12-06T09:34:14.671Z,14.70
2018-12-06T09:35:14.621Z,15.80
2018-12-06T09:36:14.570Z,14.80
2018-12-06T09:37:14.519Z,15.10
2018-12-06T09:38:14.469Z,15.70
2018-12-06T09:39:14.420Z,14.10
2018-12-06T09:40:14.366Z,13.90
2018-12-06T09:41:14.319Z,14.20
2018-12-06T09:42:14.261Z,13.30
2018-12-06T09:43:14.215Z,14.30
2018-12-06T09:44:14.176Z,14.10
2018-12-06T09:45:14.119Z,14.00
2018-12-06T09:46:14.080Z,12.30
2018-12-06T09:47:14.016Z,13.30
2018-12-06T09:48:13.968Z,12.70
2018-12-06T09:49:13.917Z,12.80
2018-12-06T09:50:13.865Z,13.30
2018-12-06T09:51:13.815Z,12.70
2018-12-06T09:52:13.766Z,13.10
2018-12-06T09:53:13.718Z,13.10
2018-12-06T09:54:13.665Z,13.30
2018-12-06T09:55:13.606Z,13.00
2018-12-06T09:56:13.565Z,13.10
2018-12-06T09:57:13.514Z,13.20
2018-12-06T09:58:13.465Z,13.20
2018-12-06T09:59:13.414Z,13.60
2018-12-06T10:00:13.365Z,13.70
2018-12-06T10:01:13.316Z,13.90
2018-12-06T10:02:13.270Z,13.50
2018-12-06T10:03:13.214Z,14.40
2018-12-06T10:04:13.170Z,14.40
2018-12-06T10:05:13.113Z,14.10
2018-12-06T10:06:13.063Z,14.20
2018-12-06T10:07:13.042Z,14.60
2018-12-06T10:08:12.962Z,13.90
2018-12-06T10:09:12.920Z,14.10
2018-12-06T10:10:12.862Z,14.20
2018-12-06T10:11:12.812Z,14.50
2018-12-06T10:12:12.765Z,13.60
2018-12-06T10:13:12.713Z,14.00
2018-12-06T10:14:12.666Z,14.30
2018-12-06T10:15:12.615Z,13.50
2018-12-06T10:16:12.584Z,14.00
2018-12-06T10:17:12.511Z,13.80
2018-12-06T10:18:12.464Z,13.30
2018-12-06T10:19:12.416Z,13.00
2018-12-06T10:20:12.374Z,12.90
2018-12-06T10:21:12.315Z,12.30
2018-12-06T10:22:12.263Z,12.80
2018-12-06T10:23:12.213Z,12.90
2018-12-06T10:24:12.164Z,12.80
2018-12-06T10:25:12.112Z,13.50
2018-12-06T10:26:12.063Z,12.50
2018-12-06T10:27:12.187Z,12.50
2018-12-06T10:28:11.964Z,12.40
2018-12-06T10:29:11.911Z,12.60
2018-12-06T10:30:11.862Z,13.10
2018-12-06T10:31:11.810Z,12.90
2018-12-06T10:32:11.767Z,12.70
2018-12-06T10:33:11.712Z,13.30
2018-12-06T10:34:11.661Z,12.60
2018-12-06T10:35:11.613Z,13.20
2018-12-06T10:36:11.564Z,12.60
2018-12-06T10:37:11.511Z,12.20
2018-12-06T10:38:11.673Z,11.70
2018-12-06T10:39:11.412Z,12.40
2018-12-06T10:40:11.364Z,12.80
2018-12-06T10:41:11.310Z,12.10
2018-12-06T10:42:11.263Z,11.90
2018-12-06T10:43:11.215Z,12.40
2018-12-06T10:44:11.169Z,12.00
2018-12-06T10:45:11.120Z,11.60
2018-12-06T10:46:11.067Z,12.50
2018-12-06T10:47:11.017Z,12.40
2018-12-06T10:48:10.967Z,12.10
2018-12-06T10:49:10.915Z,12.60
2018-12-06T10:50:10.869Z,12.30
2018-12-06T10:51:10.815Z,13.40
2018-12-06T10:52:10.766Z,13.10
2018-12-06T10:53:10.713Z,12.20
2018-12-06T10:54:10.670Z,12.10
2018-12-06T10:55:10.615Z,13.40
2018-12-06T10:56:10.566Z,12.70
2018-12-06T10:57:10.525Z,12.40
2018-12-06T10:58:10.469Z,12.80
2018-12-06T10:59:10.418Z,12.20
2018-12-06T11:00:10.370Z,11.10
2018-12-06T11:01:10.323Z,11.20
2018-12-06T11:02:10.274Z,11.20
2018-12-06T11:03:10.214Z,11.70
2018-12-06T11:04:10.172Z,12.30
2018-12-06T11:05:10.170Z,11.00
2018-12-06T11:06:10.072Z,11.80
2018-12-06T11:07:10.022Z,10.90
2018-12-06T11:08:09.974Z,11.00
2018-12-06T11:09:09.922Z,11.20
2018-12-06T11:10:09.882Z,10.80
2018-12-06T11:11:09.824Z,11.40
2018-12-06T11:12:09.974Z,11.40
2018-12-06T11:13:09.727Z,10.70
2018-12-06T11:14:09.696Z,11.50
2018-12-06T11:15:09.629Z,11.40
2018-12-06T11:16:09.583Z,11.30
2018-12-06T11:17:09.530Z,11.50
2018-12-06T11:18:09.471Z,11.50
2018-12-06T11:19:09.430Z,12.00
2018-12-06T11:20:09.595Z,11.90
2018-12-06T11:21:09.358Z,11.30
2018-12-06T11:22:09.322Z,11.60
2018-12-06T11:23:09.233Z,11.10
2018-12-06T11:24:09.194Z,12.40
2018-12-06T11:25:09.140Z,11.80
2018-12-06T11:26:09.088Z,12.10
2018-12-06T11:27:09.037Z,12.70
2018-12-06T11:28:08.985Z,12.60
2018-12-06T11:29:08.937Z,11.80
2018-12-06T11:30:08.913Z,12.90
2018-12-06T11:31:08.843Z,12.30
2018-12-06T11:32:08.788Z,11.70
2018-12-06T11:33:08.766Z,12.40
2018-12-06T11:34:08.903Z,12.00
2018-12-06T11:35:08.648Z,12.00
2018-12-06T11:36:08.591Z,11.70
2018-12-06T11:37:08.593Z,11.80
2018-12-06T11:38:08.493Z,11.50
2018-12-06T11:39:08.447Z,11.70
2018-12-06T11:40:08.395Z,12.10
2018-12-06T11:41:08.359Z,11.60
2018-12-06T11:42:08.296Z,12.30
2018-12-06T11:43:08.243Z,11.20
2018-12-06T11:44:08.208Z,10.50
2018-12-06T11:45:08.149Z,10.50
2018-12-06T11:46:08.104Z,11.00
2018-12-06T11:47:08.048Z,11.10
2018-12-06T11:48:08.978Z,10.70
2018-12-06T11:49:07.951Z,11.30
2018-12-06T11:50:07.901Z,10.90
2018-12-06T11:51:07.850Z,11.90
2018-12-06T11:52:07.803Z,11.10
2018-12-06T11:53:07.750Z,14.30
2018-12-06T11:54:07.719Z,11.80
2018-12-06T11:55:07.665Z,11.10
2018-12-06T11:56:07.612Z,11.40
2018-12-06T11:57:07.605Z,13.50
2018-12-06T11:58:11.408Z,11.30
2018-12-06T11:59:07.464Z,18.00
2018-12-06T12:00:07.425Z,22.60
2018-12-06T12:01:07.354Z,18.90
2018-12-06T12:02:10.199Z,10.70
2018-12-06T12:03:07.265Z,12.90
2018-12-06T12:04:07.217Z,29.60
2018-12-06T12:05:07.169Z,16.70
2018-12-06T12:06:07.118Z,10.60
2018-12-06T12:07:07.105Z,16.10
2018-12-06T12:08:07.023Z,12.80
2018-12-06T12:09:07.119Z,17.80
2018-12-06T12:10:06.927Z,10.30
2018-12-06T12:11:06.877Z,23.50
2018-12-06T12:12:06.828Z,10.40
2018-12-06T12:13:06.780Z,10.10
2018-12-06T12:14:06.924Z,15.50
2018-12-06T12:15:06.677Z,22.50
2018-12-06T12:16:06.634Z,26.50
2018-12-06T12:17:06.602Z,21.10
2018-12-06T12:18:06.616Z,14.60
2018-12-06T12:19:06.722Z,14.30
2018-12-06T12:20:06.441Z,15.40
2018-12-06T12:21:06.387Z,10.50
2018-12-06T12:22:06.436Z,13.70
2018-12-06T12:23:06.294Z,14.50
2018-12-06T12:24:06.424Z,9.10
2018-12-06T12:25:06.195Z,11.40
2018-12-06T12:26:06.147Z,18.90
2018-12-06T12:27:06.105Z,19.90
2018-12-06T12:28:06.048Z,19.30
2018-12-06T12:29:06.230Z,11.30
2018-12-06T12:30:05.951Z,10.40
2018-12-06T12:31:05.906Z,9.80
2018-12-06T12:32:05.872Z,8.60
2018-12-06T12:33:05.808Z,8.20
2018-12-06T12:34:05.927Z,8.30
2018-12-06T12:35:05.710Z,8.40
2018-12-06T12:36:05.662Z,10.20
2018-12-06T12:37:05.629Z,8.30
2018-12-06T12:38:05.567Z,7.20
2018-12-06T12:39:05.519Z,7.70
2018-12-06T12:40:05.467Z,7.10
2018-12-06T12:41:05.627Z,7.10
2018-12-06T12:42:05.448Z,7.50
2018-12-06T12:43:05.325Z,7.40
2018-12-06T12:44:05.288Z,7.40
2018-12-06T12:45:05.222Z,6.70
2018-12-06T12:46:05.334Z,7.10
2018-12-06T12:47:05.123Z,7.10
2018-12-06T12:48:05.073Z,7.60
2018-12-06T12:49:05.046Z,6.60
2018-12-06T12:50:04.987Z,6.80
2018-12-06T12:51:04.933Z,7.00
2018-12-06T12:52:04.899Z,7.10
2018-12-06T12:53:05.022Z,6.10